EBCILIPH

Guest
Details From EBCI - Brussels South - Charleroi
To LIPH - Treviso
Flight Number -
Tags Generated
Created
Modified
Stats Distance 424 nm / 785 km
Max Altitude 0 ft / 0 m
Waypoints 3
Social Downloads 0
Likes 0
Share VATSIM

Download

Looking for another format? Having issues loading an existing format? Contact us
Advertisement - Login to hide

Notes

Generated

Route

EBCI ISA01 LIPH

ID Type Via Altitude Latitude Longitude Leg Dist Tot Dist Heading (true) Name
O EBCI APT - 0 ft / 0 m 50.45539˚ 4.43664˚ - 0 nm - -
ISA01 FIX - 0 ft / 0 m 45.68765˚ 12.10560˚ 419 nm 419 nm 130° / 136° -
O LIPH APT - 0 ft / 0 m 45.64464˚ 12.17963˚ 4 nm 424 nm 130° / 130° -

Altitude Profile

Advertisement - Login to hide

Weather


0- 5 10 15 20 25 30 35+ Temperature / ° C

Clouds and Precipitation
Forecast for 2017-12-11 12:00 UTC. Updated an hour ago

Ground ~20,000 ft ~40,000 ft Winds

EBCI

Details ICAO EBCI (CRL)
Name Brussels South - Charleroi
Region Belgium
Timezone Europe/Brussels (UTC+1.0)
Stats Elevation 614 ft / 187 m (AMSL)
Location 50.459947° 4.453125°
Runways 1
Magnetic Variation 1.132° E

METAR

EBCI 110750Z 06015KT 3500 -RA BR SCT005 BKN007 03/02 Q0976 TEMPO 2500 RA BR BKN005

Decode

TAF

TAF EBCI 110520Z 1106/1212 08011KT 9999 BKN012 PROB40 TEMPO 1106/1111 2200 RA RADZ BKN005 BECMG 1110/1112 BKN022 PROB30 TEMPO 1111/1120 3400 SHRA SCT007 BKN012TCU BECMG 1112/1114 17013KT PROB30 TEMPIO 1120/1212 1200 SHSNRA BKN004 SCT012TCU BECMG 1122/1124 31012KT BECMG 1203/1205 25008KT

Decode

Departure Runways

ID Width Length Bearing (true) Bearing (mag) Surface Threshold Offset Overrun Length
07 148 ft / 45 m 8,374 ft / 2,552 m 65.53° 64.40° Asphalt 1,476 ft / 450 m 0 ft / 0 m
25 148 ft / 45 m 8,374 ft / 2,552 m 245.55° 244.42° Asphalt 0 ft / 0 m 0 ft / 0 m

LIPH

Details ICAO LIPH (TSF)
Name TREVISO
Region Italy
Timezone Europe/Rome (UTC+1.0)
Stats Elevation 59 ft / 18 m (AMSL)
Location 45.648499° 12.194136°
Runways 1
Magnetic Variation 3.151° E

METAR

LIPH 110750Z 01003KT 5000 -RA BR BKN025 02/02 Q1001 RERA

Decode

TAF

TAF LIPH 110500Z 1106/1206 VRB06KT 6000 SCT030 TEMPO 1106/1115 2000 RA BECMG 1110/1112 17012KT

Decode

Destination Runways

ID Width Length Bearing (true) Bearing (mag) Surface Threshold Offset Overrun Length
07 144 ft / 44 m 7,919 ft / 2,414 m 69.18° 66.03° Asphalt 254 ft / 77 m 975 ft / 297 m
25 144 ft / 44 m 7,919 ft / 2,414 m 249.20° 246.05° Asphalt 389 ft / 119 m 0 ft / 0 m

Approach Navaids

Runway Type Ident Frequency Range Bearing (true) Bearing (mag) Slope Elevation
07 Localiser TRE 109.30 MHz 18 nm / 33 km 69.20° 66.05° - 51 ft / 16 m (AMSL)
07 Glidescope TRE 109.30 MHz 10 nm / 19 km 69.19° 66.04° 3.00° 56 ft / 17 m (AMSL)

Popular Alternatives